RYR25QH LICT-EDLV
Flight info
| Callsign | RYR25QH |
|---|---|
| Flight time | 2h 12m |
| Altitude | 38000 |
| Route | ADUKA DCT RUVIP DCT KONER DCT AOSTA DCT ORSUD DCT MOLUS DCT GILIR DCT PENDU DCT IXILU DCT EPL/N0421F320 DCT ROUSY/N0416F310 M624 DIK N853 ARCKY T853 IBESA T474 LAA |
| Aircraft | B738/M-SADFGIJ1LRWY/SB1 |
Departure
| Time | 2026-04-24 11:55 |
|---|---|
| Airport | Vincenzo Florio Airport Trapani-Birgi (LICT) |
Arrival
| Time | 2026-04-24 14:07 |
|---|---|
| Airport | Weeze (Niederrhein) Airport (EDLV) |
| Time | Latitude | Longitude | Altitude | Speed | Heading |
|---|---|---|---|---|---|
| 2026-04-24 11:25 | 37.90203 | 12.49717 | 28 ft | 0 kts | 277° |
| 2026-04-24 11:26 | 37.90202 | 12.49722 | 28 ft | 0 kts | 277° |
| 2026-04-24 11:29 | 37.90203 | 12.49717 | 28 ft | 0 kts | 277° |
| 2026-04-24 11:51 | 37.90203 | 12.49715 | 28 ft | 1 kts | 285° |
| 2026-04-24 11:52 | 37.90215 | 12.49709 | 28 ft | 3 kts | 351° |
| 2026-04-24 11:52 | 37.90241 | 12.49725 | 28 ft | 5 kts | 13° |
| 2026-04-24 11:52 | 37.90273 | 12.49722 | 29 ft | 5 kts | 356° |
| 2026-04-24 11:52 | 37.90303 | 12.49732 | 30 ft | 5 kts | 23° |
| 2026-04-24 11:53 | 37.90333 | 12.49741 | 31 ft | 4 kts | 359° |
| 2026-04-24 11:53 | 37.90360 | 12.49724 | 31 ft | 5 kts | 319° |
| 2026-04-24 11:53 | 37.90389 | 12.49678 | 32 ft | 9 kts | 311° |
| 2026-04-24 11:53 | 37.90449 | 12.49683 | 35 ft | 10 kts | 32° |
| 2026-04-24 11:54 | 37.90505 | 12.49734 | 35 ft | 11 kts | 37° |
| 2026-04-24 11:54 | 37.90582 | 12.49706 | 34 ft | 21 kts | 308° |
| 2026-04-24 11:54 | 37.90806 | 12.49341 | 32 ft | 85 kts | 308° |
| 2026-04-24 11:54 | 37.91292 | 12.48551 | 26 ft | 140 kts | 308° |
| 2026-04-24 11:55 | 37.91955 | 12.47491 | 367 ft | 157 kts | 310° |
| 2026-04-24 11:55 | 37.92685 | 12.46418 | 940 ft | 165 kts | 323° |
| 2026-04-24 11:55 | 37.93755 | 12.45773 | 1350 ft | 182 kts | 339° |
| 2026-04-24 11:55 | 37.94919 | 12.44887 | 1600 ft | 205 kts | 326° |
| 2026-04-24 11:56 | 37.96155 | 12.43797 | 1805 ft | 226 kts | 327° |
| 2026-04-24 11:56 | 37.97521 | 12.42636 | 2054 ft | 246 kts | 328° |
| 2026-04-24 11:56 | 37.98978 | 12.41425 | 2669 ft | 253 kts | 328° |
| 2026-04-24 11:56 | 38.00453 | 12.40221 | 3569 ft | 253 kts | 329° |
| 2026-04-24 11:57 | 38.01958 | 12.39008 | 4322 ft | 259 kts | 330° |
| 2026-04-24 11:57 | 38.03500 | 12.37778 | 5059 ft | 265 kts | 330° |
| 2026-04-24 11:57 | 38.05078 | 12.36529 | 5795 ft | 269 kts | 330° |
| 2026-04-24 11:57 | 38.06679 | 12.35268 | 6554 ft | 273 kts | 330° |
| 2026-04-24 11:58 | 38.08303 | 12.33993 | 7291 ft | 275 kts | 330° |
| 2026-04-24 11:58 | 38.09935 | 12.32714 | 8073 ft | 277 kts | 329° |
| 2026-04-24 11:58 | 38.11580 | 12.31426 | 8834 ft | 278 kts | 330° |
| 2026-04-24 11:58 | 38.13231 | 12.30134 | 9622 ft | 280 kts | 330° |
| 2026-04-24 11:59 | 38.14897 | 12.28831 | 10330 ft | 283 kts | 330° |
| 2026-04-24 11:59 | 38.16627 | 12.27479 | 10589 ft | 304 kts | 330° |
| 2026-04-24 11:59 | 38.18492 | 12.26022 | 10764 ft | 325 kts | 329° |
| 2026-04-24 11:59 | 38.20464 | 12.24479 | 11115 ft | 339 kts | 329° |
| 2026-04-24 12:00 | 38.22486 | 12.22895 | 11724 ft | 343 kts | 329° |
| 2026-04-24 12:00 | 38.24528 | 12.21293 | 12419 ft | 346 kts | 329° |
| 2026-04-24 12:00 | 38.26588 | 12.19676 | 13113 ft | 349 kts | 329° |
| 2026-04-24 12:00 | 38.28664 | 12.18045 | 13873 ft | 352 kts | 329° |
| 2026-04-24 12:01 | 38.30763 | 12.16398 | 14508 ft | 356 kts | 329° |
| 2026-04-24 12:01 | 38.32875 | 12.14738 | 15227 ft | 358 kts | 329° |
| 2026-04-24 12:01 | 38.35080 | 12.13255 | 15882 ft | 360 kts | 340° |
| 2026-04-24 12:01 | 38.37469 | 12.12443 | 16569 ft | 362 kts | 351° |
| 2026-04-24 12:02 | 38.39968 | 12.11976 | 17247 ft | 365 kts | 352° |
| 2026-04-24 12:02 | 38.42491 | 12.11523 | 17903 ft | 368 kts | 352° |
| 2026-04-24 12:02 | 38.45040 | 12.11065 | 18543 ft | 372 kts | 352° |
| 2026-04-24 12:02 | 38.47610 | 12.10595 | 19109 ft | 375 kts | 352° |
| 2026-04-24 12:03 | 38.50200 | 12.10114 | 19687 ft | 377 kts | 352° |
| 2026-04-24 12:03 | 38.52803 | 12.09625 | 20294 ft | 379 kts | 352° |
| 2026-04-24 12:03 | 38.55420 | 12.09128 | 20857 ft | 382 kts | 351° |
| 2026-04-24 12:03 | 38.58060 | 12.08625 | 21406 ft | 385 kts | 351° |
| 2026-04-24 12:04 | 38.60719 | 12.08115 | 21950 ft | 388 kts | 351° |
| 2026-04-24 12:04 | 38.63399 | 12.07601 | 22491 ft | 391 kts | 351° |
| 2026-04-24 12:04 | 38.66098 | 12.07082 | 23026 ft | 394 kts | 351° |
| 2026-04-24 12:04 | 38.68817 | 12.06559 | 23548 ft | 397 kts | 351° |
| 2026-04-24 12:05 | 38.71556 | 12.06031 | 23998 ft | 399 kts | 351° |
| 2026-04-24 12:05 | 38.74351 | 12.05492 | 24434 ft | 402 kts | 351° |
| 2026-04-24 12:05 | 38.77129 | 12.04956 | 24840 ft | 405 kts | 351° |
| 2026-04-24 12:05 | 38.79924 | 12.04416 | 25250 ft | 408 kts | 351° |
| 2026-04-24 12:06 | 38.82737 | 12.03873 | 25681 ft | 410 kts | 351° |
| 2026-04-24 12:06 | 38.85521 | 12.03335 | 26125 ft | 411 kts | 351° |
| 2026-04-24 12:06 | 38.88355 | 12.02786 | 26510 ft | 413 kts | 351° |
| 2026-04-24 12:06 | 38.91211 | 12.02233 | 26866 ft | 417 kts | 351° |
| 2026-04-24 12:07 | 38.94087 | 12.01676 | 27222 ft | 419 kts | 351° |
| 2026-04-24 12:07 | 38.96981 | 12.01114 | 27602 ft | 422 kts | 351° |
| 2026-04-24 12:07 | 38.99895 | 12.00548 | 27928 ft | 425 kts | 351° |
| 2026-04-24 12:07 | 39.02801 | 11.99984 | 28263 ft | 428 kts | 351° |
| 2026-04-24 12:08 | 39.05724 | 11.99416 | 28615 ft | 430 kts | 351° |
| 2026-04-24 12:08 | 39.08690 | 11.98838 | 28962 ft | 432 kts | 351° |
| 2026-04-24 12:08 | 39.11674 | 11.98257 | 29285 ft | 435 kts | 351° |
| 2026-04-24 12:08 | 39.14677 | 11.97672 | 29605 ft | 437 kts | 351° |
| 2026-04-24 12:09 | 39.17691 | 11.97084 | 29916 ft | 440 kts | 351° |
| 2026-04-24 12:09 | 39.20727 | 11.96491 | 30187 ft | 443 kts | 352° |
| 2026-04-24 12:09 | 39.23789 | 11.95892 | 30380 ft | 447 kts | 352° |
| 2026-04-24 12:09 | 39.26865 | 11.95291 | 30710 ft | 447 kts | 352° |
| 2026-04-24 12:10 | 39.29928 | 11.94691 | 31135 ft | 444 kts | 352° |
| 2026-04-24 12:10 | 39.32977 | 11.94093 | 31533 ft | 442 kts | 352° |
| 2026-04-24 12:10 | 39.36019 | 11.93496 | 31849 ft | 443 kts | 352° |
| 2026-04-24 12:11 | 39.42112 | 11.92300 | 32506 ft | 442 kts | 352° |
| 2026-04-24 12:11 | 39.45151 | 11.91702 | 32806 ft | 443 kts | 352° |
| 2026-04-24 12:11 | 39.48201 | 11.91102 | 33081 ft | 443 kts | 352° |
| 2026-04-24 12:11 | 39.51247 | 11.90501 | 33428 ft | 442 kts | 352° |
| 2026-04-24 12:12 | 39.54285 | 11.89902 | 33796 ft | 441 kts | 352° |
| 2026-04-24 12:12 | 39.57313 | 11.89304 | 34124 ft | 440 kts | 352° |
| 2026-04-24 12:12 | 39.60342 | 11.88706 | 34382 ft | 440 kts | 352° |
| 2026-04-24 12:12 | 39.63368 | 11.88108 | 34657 ft | 439 kts | 352° |
| 2026-04-24 12:13 | 39.66386 | 11.87510 | 34957 ft | 438 kts | 352° |
| 2026-04-24 12:13 | 39.69397 | 11.86913 | 35207 ft | 438 kts | 352° |
| 2026-04-24 12:13 | 39.72406 | 11.86317 | 35462 ft | 437 kts | 352° |
| 2026-04-24 12:13 | 39.75410 | 11.85721 | 35748 ft | 436 kts | 352° |
| 2026-04-24 12:14 | 39.77390 | 11.85328 | 35943 ft | 435 kts | 352° |
| 2026-04-24 12:14 | 39.80375 | 11.84734 | 36216 ft | 434 kts | 352° |
| 2026-04-24 12:14 | 39.83354 | 11.84142 | 36452 ft | 433 kts | 352° |
| 2026-04-24 12:14 | 39.86330 | 11.83549 | 36701 ft | 432 kts | 352° |
| 2026-04-24 12:15 | 39.89300 | 11.82958 | 36958 ft | 431 kts | 352° |
| 2026-04-24 12:15 | 39.92258 | 11.82368 | 37215 ft | 430 kts | 352° |
| 2026-04-24 12:15 | 39.95214 | 11.81778 | 37448 ft | 429 kts | 352° |
| 2026-04-24 12:15 | 39.98162 | 11.81189 | 37670 ft | 428 kts | 352° |
| 2026-04-24 12:16 | 40.01103 | 11.80601 | 37903 ft | 428 kts | 352° |
| 2026-04-24 12:16 | 40.04040 | 11.80005 | 38113 ft | 427 kts | 350° |
| 2026-04-24 12:16 | 40.06931 | 11.79070 | 38148 ft | 431 kts | 342° |
| 2026-04-24 12:17 | 40.12403 | 11.75836 | 38160 ft | 432 kts | 335° |
| 2026-04-24 12:17 | 40.17780 | 11.72412 | 38167 ft | 428 kts | 335° |
| 2026-04-24 12:18 | 40.23126 | 11.69033 | 38161 ft | 426 kts | 336° |
| 2026-04-24 12:18 | 40.28454 | 11.65694 | 38156 ft | 423 kts | 336° |
| 2026-04-24 12:19 | 40.33765 | 11.62372 | 38170 ft | 423 kts | 336° |
| 2026-04-24 12:19 | 40.39077 | 11.59048 | 38172 ft | 424 kts | 336° |
| 2026-04-24 12:20 | 40.44408 | 11.55705 | 38175 ft | 425 kts | 336° |
| 2026-04-24 12:20 | 40.49760 | 11.52343 | 38173 ft | 428 kts | 336° |
| 2026-04-24 12:21 | 40.55140 | 11.48956 | 38172 ft | 430 kts | 336° |
| 2026-04-24 12:21 | 40.60512 | 11.45568 | 38167 ft | 432 kts | 336° |
| 2026-04-24 12:22 | 40.65942 | 11.42138 | 38165 ft | 434 kts | 336° |
| 2026-04-24 12:22 | 40.71426 | 11.38666 | 38165 ft | 435 kts | 336° |
| 2026-04-24 12:23 | 40.76844 | 11.35230 | 38162 ft | 435 kts | 336° |
| 2026-04-24 12:23 | 40.82302 | 11.31763 | 38157 ft | 435 kts | 336° |
| 2026-04-24 12:24 | 40.87753 | 11.28294 | 38152 ft | 434 kts | 336° |
| 2026-04-24 12:24 | 40.93227 | 11.24803 | 38161 ft | 433 kts | 336° |
| 2026-04-24 12:25 | 40.98652 | 11.21338 | 38165 ft | 433 kts | 336° |
| 2026-04-24 12:25 | 41.04061 | 11.17876 | 38151 ft | 432 kts | 336° |
| 2026-04-24 12:26 | 41.09462 | 11.14413 | 38168 ft | 431 kts | 336° |
| 2026-04-24 12:26 | 41.14858 | 11.10948 | 38162 ft | 431 kts | 336° |
| 2026-04-24 12:27 | 41.20219 | 11.07498 | 38158 ft | 431 kts | 336° |
| 2026-04-24 12:27 | 41.25612 | 11.04022 | 38150 ft | 431 kts | 337° |
| 2026-04-24 12:28 | 41.31007 | 11.00538 | 38164 ft | 431 kts | 337° |
| 2026-04-24 12:28 | 41.36344 | 10.97085 | 38162 ft | 432 kts | 337° |
| 2026-04-24 12:29 | 41.41758 | 10.93575 | 38163 ft | 434 kts | 336° |
| 2026-04-24 12:29 | 41.47189 | 10.90048 | 38157 ft | 435 kts | 337° |
| 2026-04-24 12:30 | 41.52633 | 10.86506 | 38164 ft | 436 kts | 337° |
| 2026-04-24 12:30 | 41.58086 | 10.82951 | 38165 ft | 437 kts | 337° |
| 2026-04-24 12:31 | 41.63552 | 10.79382 | 38165 ft | 438 kts | 337° |
| 2026-04-24 12:31 | 41.69026 | 10.75799 | 38163 ft | 438 kts | 337° |
| 2026-04-24 12:32 | 41.74501 | 10.72209 | 38160 ft | 438 kts | 337° |
| 2026-04-24 12:32 | 41.79985 | 10.68607 | 38164 ft | 438 kts | 337° |
| 2026-04-24 12:33 | 41.85463 | 10.65002 | 38163 ft | 438 kts | 337° |
| 2026-04-24 12:33 | 41.90932 | 10.61395 | 38165 ft | 438 kts | 337° |
| 2026-04-24 12:34 | 41.96392 | 10.57788 | 38167 ft | 437 kts | 337° |
| 2026-04-24 12:34 | 42.01838 | 10.54183 | 38164 ft | 436 kts | 337° |
| 2026-04-24 12:35 | 42.07279 | 10.50575 | 38169 ft | 436 kts | 337° |
| 2026-04-24 12:35 | 42.12718 | 10.46961 | 38165 ft | 436 kts | 337° |
| 2026-04-24 12:36 | 42.18148 | 10.43346 | 38170 ft | 435 kts | 337° |
| 2026-04-24 12:36 | 42.23576 | 10.39725 | 38159 ft | 435 kts | 337° |
| 2026-04-24 12:37 | 42.28999 | 10.36101 | 38171 ft | 435 kts | 337° |
| 2026-04-24 12:37 | 42.34426 | 10.32467 | 38175 ft | 435 kts | 337° |
| 2026-04-24 12:38 | 42.39816 | 10.28851 | 38156 ft | 436 kts | 337° |
| 2026-04-24 12:38 | 42.45245 | 10.25201 | 38169 ft | 436 kts | 337° |
| 2026-04-24 12:39 | 42.56104 | 10.17880 | 38167 ft | 436 kts | 336° |
| 2026-04-24 12:40 | 42.61534 | 10.14209 | 38160 ft | 436 kts | 337° |
| 2026-04-24 12:40 | 42.66965 | 10.10529 | 38170 ft | 436 kts | 337° |
| 2026-04-24 12:41 | 42.72397 | 10.06842 | 38169 ft | 437 kts | 337° |
| 2026-04-24 12:41 | 42.77838 | 10.03141 | 38167 ft | 437 kts | 337° |
| 2026-04-24 12:42 | 42.83223 | 9.99471 | 38162 ft | 437 kts | 337° |
| 2026-04-24 12:42 | 42.88664 | 9.95756 | 38164 ft | 437 kts | 337° |
| 2026-04-24 12:43 | 42.94103 | 9.92035 | 38163 ft | 437 kts | 337° |
| 2026-04-24 12:43 | 42.99544 | 9.88304 | 38163 ft | 438 kts | 337° |
| 2026-04-24 12:44 | 43.04979 | 9.84570 | 38162 ft | 437 kts | 337° |
| 2026-04-24 12:44 | 43.10414 | 9.80829 | 38155 ft | 437 kts | 336° |
| 2026-04-24 12:45 | 43.15848 | 9.77081 | 38166 ft | 437 kts | 336° |
| 2026-04-24 12:45 | 43.21281 | 9.73326 | 38164 ft | 437 kts | 336° |
| 2026-04-24 12:46 | 43.26714 | 9.69564 | 38167 ft | 437 kts | 336° |
| 2026-04-24 12:46 | 43.32146 | 9.65795 | 38165 ft | 438 kts | 336° |
| 2026-04-24 12:47 | 43.37544 | 9.62042 | 38162 ft | 438 kts | 336° |
| 2026-04-24 12:47 | 43.42981 | 9.58253 | 38160 ft | 438 kts | 336° |
| 2026-04-24 12:48 | 43.48419 | 9.54458 | 38164 ft | 438 kts | 336° |
| 2026-04-24 12:48 | 43.53731 | 9.50302 | 38167 ft | 441 kts | 330° |
| 2026-04-24 12:49 | 43.58837 | 9.45594 | 38144 ft | 442 kts | 329° |
| 2026-04-24 12:49 | 43.63930 | 9.40831 | 38158 ft | 442 kts | 329° |
| 2026-04-24 12:50 | 43.69043 | 9.36104 | 38162 ft | 443 kts | 329° |
| 2026-04-24 12:50 | 43.74173 | 9.31393 | 38161 ft | 443 kts | 329° |
| 2026-04-24 12:51 | 43.79317 | 9.26671 | 38161 ft | 444 kts | 329° |
| 2026-04-24 12:51 | 43.84464 | 9.21938 | 38161 ft | 444 kts | 329° |
| 2026-04-24 12:52 | 43.89612 | 9.17192 | 38159 ft | 445 kts | 329° |
| 2026-04-24 12:52 | 43.94765 | 9.12431 | 38161 ft | 445 kts | 329° |
| 2026-04-24 12:53 | 43.99917 | 9.07660 | 38144 ft | 445 kts | 329° |
| 2026-04-24 12:53 | 44.05066 | 9.02882 | 38160 ft | 445 kts | 329° |
| 2026-04-24 12:54 | 44.10168 | 8.98137 | 38154 ft | 445 kts | 329° |
| 2026-04-24 12:54 | 44.15320 | 8.93336 | 38158 ft | 446 kts | 329° |
| 2026-04-24 12:55 | 44.20471 | 8.88526 | 38153 ft | 446 kts | 328° |
| 2026-04-24 12:55 | 44.25622 | 8.83705 | 38153 ft | 446 kts | 328° |
| 2026-04-24 12:56 | 44.30772 | 8.78875 | 38153 ft | 446 kts | 328° |
| 2026-04-24 12:56 | 44.35919 | 8.74037 | 38158 ft | 446 kts | 328° |
| 2026-04-24 12:57 | 44.41064 | 8.69191 | 38143 ft | 446 kts | 328° |
| 2026-04-24 12:57 | 44.46209 | 8.64334 | 38154 ft | 446 kts | 328° |
| 2026-04-24 12:58 | 44.51360 | 8.59462 | 38142 ft | 447 kts | 328° |
| 2026-04-24 12:58 | 44.56517 | 8.54573 | 38132 ft | 448 kts | 328° |
| 2026-04-24 12:59 | 44.61679 | 8.49668 | 38122 ft | 449 kts | 328° |
| 2026-04-24 12:59 | 44.66850 | 8.44744 | 38116 ft | 449 kts | 328° |
| 2026-04-24 13:00 | 44.71149 | 8.40643 | 38113 ft | 449 kts | 328° |
| 2026-04-24 13:00 | 44.76319 | 8.35700 | 38102 ft | 449 kts | 327° |
| 2026-04-24 13:01 | 44.81484 | 8.30751 | 38100 ft | 449 kts | 327° |
| 2026-04-24 13:01 | 44.86642 | 8.25798 | 38098 ft | 449 kts | 327° |
| 2026-04-24 13:02 | 44.92630 | 8.20033 | 38095 ft | 448 kts | 327° |
| 2026-04-24 13:02 | 44.96943 | 8.15873 | 38099 ft | 448 kts | 327° |
| 2026-04-24 13:03 | 45.02049 | 8.10937 | 38101 ft | 448 kts | 327° |
| 2026-04-24 13:03 | 45.07188 | 8.05958 | 38087 ft | 447 kts | 327° |
| 2026-04-24 13:04 | 45.12319 | 8.00976 | 38091 ft | 447 kts | 326° |
| 2026-04-24 13:04 | 45.17407 | 7.96025 | 38088 ft | 447 kts | 326° |
| 2026-04-24 13:05 | 45.22533 | 7.91025 | 38085 ft | 447 kts | 326° |
| 2026-04-24 13:05 | 45.27662 | 7.86012 | 38088 ft | 448 kts | 326° |
| 2026-04-24 13:06 | 45.32793 | 7.80986 | 38083 ft | 448 kts | 326° |
| 2026-04-24 13:06 | 45.37927 | 7.75945 | 38104 ft | 449 kts | 326° |
| 2026-04-24 13:07 | 45.43064 | 7.70890 | 38102 ft | 449 kts | 326° |
| 2026-04-24 13:07 | 45.48207 | 7.65818 | 38120 ft | 450 kts | 326° |
| 2026-04-24 13:08 | 45.53360 | 7.60724 | 38131 ft | 451 kts | 326° |
| 2026-04-24 13:08 | 45.58517 | 7.55614 | 38136 ft | 452 kts | 326° |
| 2026-04-24 13:09 | 45.66255 | 7.47925 | 38139 ft | 451 kts | 326° |
| 2026-04-24 13:09 | 45.71405 | 7.42793 | 38047 ft | 451 kts | 326° |
| 2026-04-24 13:10 | 45.76556 | 7.37649 | 38064 ft | 451 kts | 325° |
| 2026-04-24 13:10 | 45.81707 | 7.32486 | 38033 ft | 452 kts | 325° |
| 2026-04-24 13:11 | 45.86833 | 7.27301 | 38068 ft | 451 kts | 325° |
| 2026-04-24 13:11 | 45.91959 | 7.22102 | 38100 ft | 451 kts | 325° |
| 2026-04-24 13:12 | 45.97112 | 7.16961 | 38136 ft | 451 kts | 328° |
| 2026-04-24 13:12 | 46.02475 | 7.12418 | 38143 ft | 451 kts | 330° |
| 2026-04-24 13:13 | 46.07945 | 7.07994 | 38140 ft | 451 kts | 330° |
| 2026-04-24 13:13 | 46.13387 | 7.03513 | 38145 ft | 451 kts | 330° |
| 2026-04-24 13:14 | 46.18756 | 6.99017 | 38172 ft | 451 kts | 329° |
| 2026-04-24 13:14 | 46.24176 | 6.94447 | 38148 ft | 451 kts | 329° |
| 2026-04-24 13:15 | 46.29587 | 6.89872 | 38163 ft | 451 kts | 329° |
| 2026-04-24 13:15 | 46.34997 | 6.85290 | 38192 ft | 451 kts | 329° |
| 2026-04-24 13:16 | 46.40412 | 6.80694 | 38171 ft | 451 kts | 329° |
| 2026-04-24 13:16 | 46.45825 | 6.76090 | 38188 ft | 451 kts | 329° |
| 2026-04-24 13:17 | 46.51245 | 6.71469 | 38196 ft | 452 kts | 329° |
| 2026-04-24 13:17 | 46.56717 | 6.66940 | 38174 ft | 454 kts | 336° |
| 2026-04-24 13:18 | 46.62803 | 6.64666 | 38190 ft | 454 kts | 353° |
| 2026-04-24 13:18 | 46.69079 | 6.63635 | 38175 ft | 455 kts | 354° |
| 2026-04-24 13:19 | 46.75373 | 6.62609 | 38190 ft | 455 kts | 354° |
| 2026-04-24 13:19 | 46.81669 | 6.61523 | 38180 ft | 456 kts | 353° |
| 2026-04-24 13:20 | 46.87931 | 6.60409 | 38184 ft | 457 kts | 353° |
| 2026-04-24 13:20 | 46.94242 | 6.59275 | 38190 ft | 457 kts | 353° |
| 2026-04-24 13:21 | 47.00555 | 6.58139 | 38188 ft | 457 kts | 353° |
| 2026-04-24 13:21 | 47.06871 | 6.57005 | 38179 ft | 458 kts | 353° |
| 2026-04-24 13:22 | 47.13193 | 6.55868 | 38179 ft | 458 kts | 353° |
| 2026-04-24 13:22 | 47.19514 | 6.54726 | 38172 ft | 458 kts | 353° |
| 2026-04-24 13:23 | 47.25834 | 6.53580 | 38175 ft | 458 kts | 353° |
| 2026-04-24 13:23 | 47.32156 | 6.52430 | 38184 ft | 458 kts | 353° |
| 2026-04-24 13:24 | 47.38486 | 6.51276 | 38180 ft | 458 kts | 353° |
| 2026-04-24 13:24 | 47.44820 | 6.50118 | 38176 ft | 459 kts | 352° |
| 2026-04-24 13:25 | 47.51162 | 6.48957 | 38173 ft | 459 kts | 352° |
| 2026-04-24 13:25 | 47.57500 | 6.47793 | 38180 ft | 459 kts | 352° |
| 2026-04-24 13:26 | 47.63837 | 6.46626 | 38183 ft | 459 kts | 352° |
| 2026-04-24 13:26 | 47.70175 | 6.45457 | 38184 ft | 459 kts | 352° |
| 2026-04-24 13:27 | 47.76504 | 6.44286 | 38185 ft | 458 kts | 352° |
| 2026-04-24 13:27 | 47.82827 | 6.43114 | 38175 ft | 458 kts | 352° |
| 2026-04-24 13:28 | 47.89149 | 6.41939 | 38180 ft | 458 kts | 352° |
| 2026-04-24 13:28 | 47.95467 | 6.40761 | 38183 ft | 457 kts | 352° |
| 2026-04-24 13:29 | 48.01770 | 6.39584 | 38177 ft | 457 kts | 352° |
| 2026-04-24 13:29 | 48.08080 | 6.38413 | 38183 ft | 457 kts | 352° |
| 2026-04-24 13:30 | 48.14391 | 6.37255 | 38196 ft | 457 kts | 352° |
| 2026-04-24 13:30 | 48.20658 | 6.36102 | 38199 ft | 457 kts | 352° |
| 2026-04-24 13:31 | 48.26979 | 6.34933 | 38206 ft | 458 kts | 352° |
| 2026-04-24 13:31 | 48.33306 | 6.33759 | 38206 ft | 459 kts | 352° |
| 2026-04-24 13:32 | 48.39644 | 6.32581 | 38209 ft | 459 kts | 352° |
| 2026-04-24 13:32 | 48.45989 | 6.31397 | 38198 ft | 459 kts | 352° |
| 2026-04-24 13:33 | 48.52335 | 6.30211 | 38210 ft | 460 kts | 351° |
| 2026-04-24 13:33 | 48.55516 | 6.29616 | 37922 ft | 463 kts | 351° |
| 2026-04-24 13:33 | 48.58715 | 6.29014 | 37501 ft | 463 kts | 351° |
| 2026-04-24 13:34 | 48.61899 | 6.28404 | 37111 ft | 459 kts | 351° |
| 2026-04-24 13:34 | 48.65058 | 6.27792 | 36711 ft | 456 kts | 351° |
| 2026-04-24 13:34 | 48.68207 | 6.27177 | 36333 ft | 456 kts | 351° |
| 2026-04-24 13:34 | 48.71354 | 6.26562 | 35959 ft | 456 kts | 351° |
| 2026-04-24 13:35 | 48.74500 | 6.25948 | 35592 ft | 456 kts | 351° |
| 2026-04-24 13:35 | 48.77643 | 6.25334 | 35231 ft | 456 kts | 351° |
| 2026-04-24 13:35 | 48.80791 | 6.24719 | 34856 ft | 456 kts | 352° |
| 2026-04-24 13:35 | 48.83936 | 6.24104 | 34502 ft | 456 kts | 352° |
| 2026-04-24 13:36 | 48.87085 | 6.23489 | 34144 ft | 457 kts | 352° |
| 2026-04-24 13:36 | 48.90237 | 6.22872 | 33740 ft | 457 kts | 352° |
| 2026-04-24 13:36 | 48.93393 | 6.22253 | 33346 ft | 458 kts | 351° |
| 2026-04-24 13:36 | 48.96561 | 6.21631 | 32953 ft | 459 kts | 351° |
| 2026-04-24 13:37 | 48.99729 | 6.21050 | 32653 ft | 458 kts | 354° |
| 2026-04-24 13:37 | 49.02906 | 6.21019 | 32390 ft | 456 kts | 1° |
| 2026-04-24 13:37 | 49.06061 | 6.21275 | 32241 ft | 452 kts | 3° |
| 2026-04-24 13:37 | 49.09199 | 6.21601 | 32218 ft | 452 kts | 3° |
| 2026-04-24 13:38 | 49.15472 | 6.22203 | 32209 ft | 452 kts | 2° |
| 2026-04-24 13:38 | 49.21742 | 6.22690 | 32199 ft | 450 kts | 1° |
| 2026-04-24 13:39 | 49.27994 | 6.23173 | 32200 ft | 449 kts | 1° |
| 2026-04-24 13:39 | 49.34237 | 6.23672 | 32208 ft | 449 kts | 2° |
| 2026-04-24 13:40 | 49.40488 | 6.24182 | 32209 ft | 450 kts | 1° |
| 2026-04-24 13:40 | 49.46710 | 6.24692 | 32210 ft | 451 kts | 1° |
| 2026-04-24 13:41 | 49.52987 | 6.25208 | 32211 ft | 452 kts | 1° |
| 2026-04-24 13:41 | 49.59282 | 6.25727 | 32215 ft | 453 kts | 1° |
| 2026-04-24 13:42 | 49.65587 | 6.26248 | 32214 ft | 454 kts | 1° |
| 2026-04-24 13:42 | 49.71833 | 6.26766 | 32190 ft | 438 kts | 1° |
| 2026-04-24 13:43 | 49.74828 | 6.27018 | 32189 ft | 424 kts | 1° |
| 2026-04-24 13:43 | 49.77728 | 6.27261 | 32183 ft | 411 kts | 1° |
| 2026-04-24 13:43 | 49.80567 | 6.27498 | 31799 ft | 409 kts | 1° |
| 2026-04-24 13:43 | 49.83429 | 6.27733 | 31203 ft | 414 kts | 1° |
| 2026-04-24 13:44 | 49.86306 | 6.27970 | 30729 ft | 414 kts | 1° |
| 2026-04-24 13:44 | 49.89184 | 6.28209 | 30298 ft | 414 kts | 1° |
| 2026-04-24 13:44 | 49.92061 | 6.28448 | 29756 ft | 414 kts | 1° |
| 2026-04-24 13:44 | 49.94939 | 6.28689 | 29162 ft | 415 kts | 1° |
| 2026-04-24 13:45 | 49.97829 | 6.28931 | 28542 ft | 417 kts | 1° |
| 2026-04-24 13:45 | 50.00724 | 6.29174 | 27932 ft | 418 kts | 1° |
| 2026-04-24 13:45 | 50.03632 | 6.29417 | 27323 ft | 419 kts | 1° |
| 2026-04-24 13:45 | 50.06547 | 6.29662 | 26805 ft | 419 kts | 1° |
| 2026-04-24 13:46 | 50.09441 | 6.29916 | 26435 ft | 414 kts | 1° |
| 2026-04-24 13:46 | 50.12300 | 6.30224 | 26062 ft | 410 kts | 2° |
| 2026-04-24 13:46 | 50.15133 | 6.30559 | 25637 ft | 408 kts | 2° |
| 2026-04-24 13:46 | 50.17956 | 6.30902 | 25202 ft | 406 kts | 2° |
| 2026-04-24 13:47 | 50.20763 | 6.31242 | 24798 ft | 403 kts | 2° |
| 2026-04-24 13:47 | 50.23555 | 6.31577 | 24391 ft | 401 kts | 2° |
| 2026-04-24 13:47 | 50.26327 | 6.31906 | 24012 ft | 399 kts | 2° |
| 2026-04-24 13:47 | 50.29085 | 6.32231 | 23618 ft | 396 kts | 1° |
| 2026-04-24 13:48 | 50.31823 | 6.32551 | 23181 ft | 393 kts | 2° |
| 2026-04-24 13:48 | 50.34537 | 6.32868 | 22775 ft | 390 kts | 2° |
| 2026-04-24 13:48 | 50.37198 | 6.33179 | 22371 ft | 387 kts | 2° |
| 2026-04-24 13:48 | 50.39873 | 6.33491 | 21957 ft | 384 kts | 2° |
| 2026-04-24 13:49 | 50.42529 | 6.33802 | 21554 ft | 382 kts | 2° |
| 2026-04-24 13:49 | 50.45167 | 6.34110 | 21163 ft | 379 kts | 2° |
| 2026-04-24 13:49 | 50.47786 | 6.34417 | 20775 ft | 376 kts | 2° |
| 2026-04-24 13:49 | 50.50385 | 6.34722 | 20416 ft | 373 kts | 2° |
| 2026-04-24 13:50 | 50.52960 | 6.35025 | 20052 ft | 370 kts | 2° |
| 2026-04-24 13:50 | 50.55521 | 6.35326 | 19656 ft | 368 kts | 2° |
| 2026-04-24 13:50 | 50.57205 | 6.35525 | 19403 ft | 366 kts | 2° |
| 2026-04-24 13:50 | 50.59742 | 6.35823 | 19020 ft | 364 kts | 2° |
| 2026-04-24 13:51 | 50.62262 | 6.36120 | 18663 ft | 362 kts | 2° |
| 2026-04-24 13:51 | 50.64765 | 6.36416 | 18289 ft | 360 kts | 2° |
| 2026-04-24 13:51 | 50.67254 | 6.36711 | 17860 ft | 358 kts | 2° |
| 2026-04-24 13:51 | 50.69728 | 6.37003 | 17467 ft | 355 kts | 2° |
| 2026-04-24 13:52 | 50.72179 | 6.37294 | 17150 ft | 351 kts | 3° |
| 2026-04-24 13:52 | 50.74600 | 6.37582 | 16821 ft | 347 kts | 3° |
| 2026-04-24 13:52 | 50.77001 | 6.37867 | 16432 ft | 345 kts | 3° |
| 2026-04-24 13:52 | 50.79392 | 6.38150 | 16047 ft | 344 kts | 3° |
| 2026-04-24 13:53 | 50.81767 | 6.38432 | 15697 ft | 341 kts | 2° |
| 2026-04-24 13:53 | 50.84126 | 6.38713 | 15354 ft | 339 kts | 3° |
| 2026-04-24 13:53 | 50.86467 | 6.38993 | 15008 ft | 336 kts | 3° |
| 2026-04-24 13:53 | 50.88793 | 6.39270 | 14671 ft | 334 kts | 3° |
| 2026-04-24 13:54 | 50.91100 | 6.39546 | 14335 ft | 331 kts | 3° |
| 2026-04-24 13:54 | 50.93393 | 6.39820 | 13966 ft | 330 kts | 3° |
| 2026-04-24 13:54 | 50.95676 | 6.40093 | 13607 ft | 327 kts | 3° |
| 2026-04-24 13:54 | 50.97932 | 6.40363 | 13284 ft | 323 kts | 4° |
| 2026-04-24 13:55 | 51.00167 | 6.40631 | 12911 ft | 322 kts | 4° |
| 2026-04-24 13:55 | 51.02394 | 6.40898 | 12546 ft | 320 kts | 4° |
| 2026-04-24 13:55 | 51.04598 | 6.41163 | 12253 ft | 316 kts | 4° |
| 2026-04-24 13:55 | 51.06782 | 6.41426 | 11892 ft | 314 kts | 4° |
| 2026-04-24 13:56 | 51.08961 | 6.41688 | 11531 ft | 313 kts | 4° |
| 2026-04-24 13:56 | 51.11123 | 6.41947 | 11213 ft | 310 kts | 4° |
| 2026-04-24 13:56 | 51.13265 | 6.42205 | 10885 ft | 308 kts | 4° |
| 2026-04-24 13:56 | 51.15372 | 6.42461 | 10779 ft | 298 kts | 4° |
| 2026-04-24 13:57 | 51.17403 | 6.42707 | 10709 ft | 287 kts | 4° |
| 2026-04-24 13:57 | 51.19374 | 6.42946 | 10537 ft | 281 kts | 4° |
| 2026-04-24 13:57 | 51.21322 | 6.43182 | 10238 ft | 281 kts | 4° |
| 2026-04-24 13:57 | 51.23269 | 6.43417 | 9911 ft | 280 kts | 4° |
| 2026-04-24 13:58 | 51.25181 | 6.43649 | 9643 ft | 278 kts | 4° |
| 2026-04-24 13:58 | 51.27102 | 6.43882 | 9352 ft | 276 kts | 4° |
| 2026-04-24 13:58 | 51.29013 | 6.44113 | 9050 ft | 275 kts | 4° |
| 2026-04-24 13:58 | 51.30916 | 6.44345 | 8787 ft | 273 kts | 4° |
| 2026-04-24 13:59 | 51.32800 | 6.44574 | 8487 ft | 269 kts | 4° |
| 2026-04-24 13:59 | 51.34655 | 6.44800 | 8004 ft | 267 kts | 4° |
| 2026-04-24 13:59 | 51.36503 | 6.45025 | 7541 ft | 265 kts | 5° |
| 2026-04-24 13:59 | 51.38329 | 6.45248 | 7130 ft | 262 kts | 5° |
| 2026-04-24 14:00 | 51.40142 | 6.45469 | 6706 ft | 260 kts | 5° |
| 2026-04-24 14:00 | 51.41932 | 6.45688 | 6271 ft | 256 kts | 4° |
| 2026-04-24 14:00 | 51.43697 | 6.45904 | 5890 ft | 252 kts | 5° |
| 2026-04-24 14:00 | 51.45434 | 6.46116 | 5506 ft | 249 kts | 5° |
| 2026-04-24 14:01 | 51.47151 | 6.46328 | 5143 ft | 245 kts | 5° |
| 2026-04-24 14:01 | 51.48843 | 6.46534 | 4739 ft | 242 kts | 5° |
| 2026-04-24 14:01 | 51.50510 | 6.46740 | 4355 ft | 239 kts | 4° |
| 2026-04-24 14:01 | 51.52174 | 6.46944 | 3971 ft | 241 kts | 4° |
| 2026-04-24 14:02 | 51.53864 | 6.47148 | 3689 ft | 243 kts | 4° |
| 2026-04-24 14:02 | 51.55538 | 6.47352 | 3518 ft | 239 kts | 4° |
| 2026-04-24 14:02 | 51.57156 | 6.47217 | 3408 ft | 231 kts | 342° |
| 2026-04-24 14:02 | 51.58459 | 6.45858 | 3358 ft | 221 kts | 316° |
| 2026-04-24 14:03 | 51.59260 | 6.43820 | 3239 ft | 215 kts | 291° |
| 2026-04-24 14:03 | 51.59558 | 6.41520 | 3155 ft | 206 kts | 283° |
| 2026-04-24 14:03 | 51.59711 | 6.39271 | 2969 ft | 200 kts | 278° |
| 2026-04-24 14:03 | 51.59773 | 6.37034 | 2716 ft | 201 kts | 275° |
| 2026-04-24 14:04 | 51.59817 | 6.34789 | 2424 ft | 200 kts | 276° |
| 2026-04-24 14:04 | 51.59860 | 6.32574 | 2169 ft | 197 kts | 275° |
| 2026-04-24 14:04 | 51.59902 | 6.30386 | 1917 ft | 193 kts | 274° |
| 2026-04-24 14:04 | 51.59943 | 6.28289 | 1626 ft | 182 kts | 275° |
| 2026-04-24 14:05 | 51.59985 | 6.26352 | 1385 ft | 166 kts | 276° |
| 2026-04-24 14:05 | 51.60011 | 6.24585 | 1175 ft | 151 kts | 271° |
| 2026-04-24 14:05 | 51.60041 | 6.22924 | 913 ft | 144 kts | 276° |
| 2026-04-24 14:05 | 51.60086 | 6.21333 | 781 ft | 144 kts | 274° |
| 2026-04-24 14:06 | 51.60126 | 6.19679 | 571 ft | 149 kts | 274° |
| 2026-04-24 14:06 | 51.60161 | 6.18035 | 387 ft | 145 kts | 274° |
| 2026-04-24 14:06 | 51.60196 | 6.16416 | 203 ft | 146 kts | 273° |
| 2026-04-24 14:06 | 51.60232 | 6.14826 | 110 ft | 128 kts | 272° |
| 2026-04-24 14:07 | 51.60257 | 6.13744 | 115 ft | 69 kts | 272° |
| 2026-04-24 14:07 | 51.60269 | 6.13173 | 111 ft | 34 kts | 271° |
| 2026-04-24 14:07 | 51.60253 | 6.12971 | 109 ft | 13 kts | 212° |
| 2026-04-24 14:07 | 51.60162 | 6.12953 | 105 ft | 14 kts | 182° |
| 2026-04-24 14:08 | 51.60084 | 6.12999 | 107 ft | 12 kts | 105° |
| 2026-04-24 14:08 | 51.60078 | 6.13131 | 108 ft | 12 kts | 92° |
| 2026-04-24 14:08 | 51.60075 | 6.13260 | 109 ft | 12 kts | 92° |
| 2026-04-24 14:08 | 51.60072 | 6.13403 | 111 ft | 14 kts | 92° |
| 2026-04-24 14:09 | 51.60069 | 6.13576 | 111 ft | 17 kts | 92° |
| 2026-04-24 14:09 | 51.60064 | 6.13778 | 111 ft | 19 kts | 92° |
| 2026-04-24 14:09 | 51.60059 | 6.14003 | 112 ft | 22 kts | 92° |
| 2026-04-24 14:09 | 51.60053 | 6.14267 | 110 ft | 25 kts | 92° |
| 2026-04-24 14:10 | 51.60047 | 6.14557 | 108 ft | 27 kts | 90° |
| 2026-04-24 14:10 | 51.60041 | 6.14772 | 110 ft | 12 kts | 120° |
| 2026-04-24 14:10 | 51.59997 | 6.14828 | 111 ft | 5 kts | 108° |
| 2026-04-24 14:10 | 51.59995 | 6.14869 | 112 ft | 2 kts | 91° |
| 2026-04-24 14:11 | 51.59995 | 6.14870 | 112 ft | 0 kts | 91° |